sensor_id;sensor_type;location;lat;lon;timestamp;temperature;humidity
26051;DHT22;13825;53.496;10.020;2023-02-13T00:01:51;6.80;99.90
26051;DHT22;13825;53.496;10.020;2023-02-13T00:04:19;6.90;99.90
26051;DHT22;13825;53.496;10.020;2023-02-13T00:06:45;6.80;99.90
26051;DHT22;13825;53.496;10.020;2023-02-13T00:09:14;6.80;99.90
26051;DHT22;13825;53.496;10.020;2023-02-13T00:11:41;6.80;99.90
26051;DHT22;13825;53.496;10.020;2023-02-13T00:14:08;6.80;99.90
26051;DHT22;13825;53.496;10.020;2023-02-13T00:16:35;6.80;99.90
26051;DHT22;13825;53.496;10.020;2023-02-13T00:19:02;6.80;99.90
26051;DHT22;13825;53.496;10.020;2023-02-13T00:21:29;6.70;99.90
26051;DHT22;13825;53.496;10.020;2023-02-13T00:23:56;6.80;99.90
26051;DHT22;13825;53.496;10.020;2023-02-13T00:26:24;6.80;99.90
26051;DHT22;13825;53.496;10.020;2023-02-13T00:28:51;6.80;99.90
26051;DHT22;13825;53.496;10.020;2023-02-13T00:31:20;6.80;99.90
26051;DHT22;13825;53.496;10.020;2023-02-13T00:33:47;6.70;99.90
26051;DHT22;13825;53.496;10.020;2023-02-13T00:36:17;6.70;99.90
26051;DHT22;13825;53.496;10.020;2023-02-13T00:38:45;6.70;99.90
26051;DHT22;13825;53.496;10.020;2023-02-13T00:41:12;6.70;99.90
26051;DHT22;13825;53.496;10.020;2023-02-13T00:43:42;6.70;99.90
26051;DHT22;13825;53.496;10.020;2023-02-13T00:46:09;6.70;99.90
26051;DHT22;13825;53.496;10.020;2023-02-13T00:48:37;6.70;99.90
26051;DHT22;13825;53.496;10.020;2023-02-13T00:51:05;6.70;99.90
26051;DHT22;13825;53.496;10.020;2023-02-13T00:53:33;6.70;99.90
26051;DHT22;13825;53.496;10.020;2023-02-13T00:56:00;6.70;99.90
26051;DHT22;13825;53.496;10.020;2023-02-13T00:58:46;6.70;99.90
26051;DHT22;13825;53.496;10.020;2023-02-13T01:01:13;6.70;99.90
26051;DHT22;13825;53.496;10.020;2023-02-13T01:03:40;6.70;99.90
26051;DHT22;13825;53.496;10.020;2023-02-13T01:06:07;6.70;99.90
26051;DHT22;13825;53.496;10.020;2023-02-13T01:08:37;6.60;99.90
26051;DHT22;13825;53.496;10.020;2023-02-13T01:11:05;6.60;99.90
26051;DHT22;13825;53.496;10.020;2023-02-13T01:13:32;6.60;99.90
26051;DHT22;13825;53.496;10.020;2023-02-13T01:16:00;6.60;99.90
26051;DHT22;13825;53.496;10.020;2023-02-13T01:18:27;6.60;99.90
26051;DHT22;13825;53.496;10.020;2023-02-13T01:20:57;6.60;99.90
26051;DHT22;13825;53.496;10.020;2023-02-13T01:23:25;6.60;99.90
26051;DHT22;13825;53.496;10.020;2023-02-13T01:25:52;6.60;99.90
26051;DHT22;13825;53.496;10.020;2023-02-13T01:28:18;6.60;99.90
26051;DHT22;13825;53.496;10.020;2023-02-13T01:30:51;6.60;99.90
26051;DHT22;13825;53.496;10.020;2023-02-13T01:33:20;6.60;99.90
26051;DHT22;13825;53.496;10.020;2023-02-13T01:35:47;6.60;99.90
26051;DHT22;13825;53.496;10.020;2023-02-13T01:38:14;6.60;99.90
26051;DHT22;13825;53.496;10.020;2023-02-13T01:40:44;6.60;99.90
26051;DHT22;13825;53.496;10.020;2023-02-13T01:43:11;6.50;99.90
26051;DHT22;13825;53.496;10.020;2023-02-13T01:45:38;6.50;99.90
26051;DHT22;13825;53.496;10.020;2023-02-13T01:48:10;6.50;99.90
26051;DHT22;13825;53.496;10.020;2023-02-13T01:50:42;6.50;99.90
26051;DHT22;13825;53.496;10.020;2023-02-13T01:53:13;6.50;99.90
26051;DHT22;13825;53.496;10.020;2023-02-13T01:55:46;6.50;99.90
26051;DHT22;13825;53.496;10.020;2023-02-13T01:58:17;6.50;99.90
26051;DHT22;13825;53.496;10.020;2023-02-13T02:00:46;6.50;99.90
26051;DHT22;13825;53.496;10.020;2023-02-13T02:03:18;6.50;99.90
26051;DHT22;13825;53.496;10.020;2023-02-13T02:05:48;6.50;99.90
26051;DHT22;13825;53.496;10.020;2023-02-13T02:08:17;6.50;99.90
26051;DHT22;13825;53.496;10.020;2023-02-13T02:10:45;6.50;99.90
26051;DHT22;13825;53.496;10.020;2023-02-13T02:13:14;6.50;99.90
26051;DHT22;13825;53.496;10.020;2023-02-13T02:15:43;6.40;99.90
26051;DHT22;13825;53.496;10.020;2023-02-13T02:18:13;6.40;99.90
26051;DHT22;13825;53.496;10.020;2023-02-13T02:21:10;6.40;99.90
26051;DHT22;13825;53.496;10.020;2023-02-13T02:24:07;6.40;99.90
26051;DHT22;13825;53.496;10.020;2023-02-13T02:27:04;6.40;99.90
26051;DHT22;13825;53.496;10.020;2023-02-13T02:32:52;6.40;99.90
26051;DHT22;13825;53.496;10.020;2023-02-13T02:35:26;6.40;99.90
26051;DHT22;13825;53.496;10.020;2023-02-13T02:38:10;6.40;99.90
26051;DHT22;13825;53.496;10.020;2023-02-13T02:40:48;6.30;99.90
26051;DHT22;13825;53.496;10.020;2023-02-13T02:43:27;6.40;99.90
26051;DHT22;13825;53.496;10.020;2023-02-13T02:46:02;6.30;99.90
26051;DHT22;13825;53.496;10.020;2023-02-13T02:48:38;6.40;99.90
26051;DHT22;13825;53.496;10.020;2023-02-13T02:51:32;6.30;99.90
26051;DHT22;13825;53.496;10.020;2023-02-13T02:54:07;6.30;99.90
26051;DHT22;13825;53.496;10.020;2023-02-13T02:56:51;6.30;99.90
26051;DHT22;13825;53.496;10.020;2023-02-13T02:59:20;6.30;99.90
26051;DHT22;13825;53.496;10.020;2023-02-13T03:02:07;6.30;99.90
26051;DHT22;13825;53.496;10.020;2023-02-13T03:04:56;6.30;99.90
26051;DHT22;13825;53.496;10.020;2023-02-13T03:07:42;6.30;99.90
26051;DHT22;13825;53.496;10.020;2023-02-13T03:10:12;6.30;99.90
26051;DHT22;13825;53.496;10.020;2023-02-13T03:13:01;6.30;99.90
26051;DHT22;13825;53.496;10.020;2023-02-13T03:15:50;6.30;99.90
26051;DHT22;13825;53.496;10.020;2023-02-13T03:18:37;6.30;99.90
26051;DHT22;13825;53.496;10.020;2023-02-13T03:21:29;6.30;99.90
26051;DHT22;13825;53.496;10.020;2023-02-13T03:24:24;6.30;99.90
26051;DHT22;13825;53.496;10.020;2023-02-13T03:26:57;6.20;99.90
26051;DHT22;13825;53.496;10.020;2023-02-13T03:29:35;6.20;99.90
26051;DHT22;13825;53.496;10.020;2023-02-13T03:32:25;6.20;99.90
26051;DHT22;13825;53.496;10.020;2023-02-13T03:34:59;6.30;99.90
26051;DHT22;13825;53.496;10.020;2023-02-13T03:37:49;6.30;99.90
26051;DHT22;13825;53.496;10.020;2023-02-13T03:40:25;6.20;99.90
26051;DHT22;13825;53.496;10.020;2023-02-13T03:42:58;6.20;99.90
26051;DHT22;13825;53.496;10.020;2023-02-13T03:45:31;6.20;99.90
26051;DHT22;13825;53.496;10.020;2023-02-13T03:48:19;6.20;99.90
26051;DHT22;13825;53.496;10.020;2023-02-13T03:51:07;6.30;99.90
26051;DHT22;13825;53.496;10.020;2023-02-13T03:53:39;6.30;99.90
26051;DHT22;13825;53.496;10.020;2023-02-13T03:56:08;6.30;99.90
26051;DHT22;13825;53.496;10.020;2023-02-13T03:58:56;6.20;99.90
26051;DHT22;13825;53.496;10.020;2023-02-13T04:01:47;6.20;99.90
26051;DHT22;13825;53.496;10.020;2023-02-13T04:04:21;6.20;99.90
26051;DHT22;13825;53.496;10.020;2023-02-13T04:06:52;6.20;99.90
26051;DHT22;13825;53.496;10.020;2023-02-13T04:09:23;6.20;99.90
26051;DHT22;13825;53.496;10.020;2023-02-13T04:11:55;6.20;99.90
26051;DHT22;13825;53.496;10.020;2023-02-13T04:14:26;6.20;99.90
26051;DHT22;13825;53.496;10.020;2023-02-13T04:16:58;6.20;99.90
26051;DHT22;13825;53.496;10.020;2023-02-13T04:19:29;6.20;99.90
26051;DHT22;13825;53.496;10.020;2023-02-13T04:21:59;6.20;99.90
26051;DHT22;13825;53.496;10.020;2023-02-13T04:24:28;6.30;99.90
26051;DHT22;13825;53.496;10.020;2023-02-13T04:26:55;6.20;99.90
26051;DHT22;13825;53.496;10.020;2023-02-13T04:29:23;6.20;99.90
26051;DHT22;13825;53.496;10.020;2023-02-13T04:31:50;6.20;99.90
26051;DHT22;13825;53.496;10.020;2023-02-13T04:34:17;6.20;99.90
26051;DHT22;13825;53.496;10.020;2023-02-13T04:36:44;6.10;99.90
26051;DHT22;13825;53.496;10.020;2023-02-13T04:39:18;6.20;99.90
26051;DHT22;13825;53.496;10.020;2023-02-13T04:41:46;6.20;99.90
26051;DHT22;13825;53.496;10.020;2023-02-13T04:44:13;6.20;99.90
26051;DHT22;13825;53.496;10.020;2023-02-13T04:46:42;6.20;99.90
26051;DHT22;13825;53.496;10.020;2023-02-13T04:49:09;6.20;99.90
26051;DHT22;13825;53.496;10.020;2023-02-13T04:51:36;6.20;99.90
26051;DHT22;13825;53.496;10.020;2023-02-13T04:54:03;6.20;99.90
26051;DHT22;13825;53.496;10.020;2023-02-13T04:56:30;6.20;99.90
26051;DHT22;13825;53.496;10.020;2023-02-13T04:58:58;6.10;99.90
26051;DHT22;13825;53.496;10.020;2023-02-13T05:01:25;6.10;99.90
26051;DHT22;13825;53.496;10.020;2023-02-13T05:03:54;6.10;99.90
26051;DHT22;13825;53.496;10.020;2023-02-13T05:06:39;6.10;99.90
26051;DHT22;13825;53.496;10.020;2023-02-13T05:11:57;6.10;99.90
26051;DHT22;13825;53.496;10.020;2023-02-13T05:14:26;6.00;99.90
26051;DHT22;13825;53.496;10.020;2023-02-13T05:17:07;6.10;99.90
26051;DHT22;13825;53.496;10.020;2023-02-13T05:19:34;6.00;99.90
26051;DHT22;13825;53.496;10.020;2023-02-13T05:22:00;6.00;99.90
26051;DHT22;13825;53.496;10.020;2023-02-13T05:24:45;6.00;99.90
26051;DHT22;13825;53.496;10.020;2023-02-13T05:27:12;5.90;99.90
26051;DHT22;13825;53.496;10.020;2023-02-13T05:29:40;6.00;99.90
26051;DHT22;13825;53.496;10.020;2023-02-13T05:32:06;5.90;99.90
26051;DHT22;13825;53.496;10.020;2023-02-13T05:34:33;5.90;99.90
26051;DHT22;13825;53.496;10.020;2023-02-13T05:36:59;5.90;99.90
26051;DHT22;13825;53.496;10.020;2023-02-13T05:39:26;5.90;99.90
26051;DHT22;13825;53.496;10.020;2023-02-13T05:41:53;5.90;99.90
26051;DHT22;13825;53.496;10.020;2023-02-13T05:44:20;6.00;99.90
26051;DHT22;13825;53.496;10.020;2023-02-13T05:46:48;5.90;99.90
26051;DHT22;13825;53.496;10.020;2023-02-13T05:49:17;5.90;99.90
26051;DHT22;13825;53.496;10.020;2023-02-13T05:51:44;5.90;99.90
26051;DHT22;13825;53.496;10.020;2023-02-13T05:54:12;5.90;99.90
26051;DHT22;13825;53.496;10.020;2023-02-13T05:56:38;5.90;99.90
26051;DHT22;13825;53.496;10.020;2023-02-13T05:59:08;5.80;99.90
26051;DHT22;13825;53.496;10.020;2023-02-13T06:01:35;5.90;99.90
26051;DHT22;13825;53.496;10.020;2023-02-13T06:04:05;5.90;99.90
26051;DHT22;13825;53.496;10.020;2023-02-13T06:06:35;6.00;99.90
26051;DHT22;13825;53.496;10.020;2023-02-13T06:09:04;5.90;99.90
26051;DHT22;13825;53.496;10.020;2023-02-13T06:11:31;5.90;99.90
26051;DHT22;13825;53.496;10.020;2023-02-13T06:13:58;5.90;99.90
26051;DHT22;13825;53.496;10.020;2023-02-13T06:16:25;5.90;99.90
26051;DHT22;13825;53.496;10.020;2023-02-13T06:18:52;5.90;99.90
26051;DHT22;13825;53.496;10.020;2023-02-13T06:21:22;5.90;99.90
26051;DHT22;13825;53.496;10.020;2023-02-13T06:23:49;5.90;99.90
26051;DHT22;13825;53.496;10.020;2023-02-13T06:26:16;5.90;99.90
26051;DHT22;13825;53.496;10.020;2023-02-13T06:28:43;5.90;99.90
26051;DHT22;13825;53.496;10.020;2023-02-13T06:31:10;5.90;99.90
26051;DHT22;13825;53.496;10.020;2023-02-13T06:33:37;5.90;99.90
26051;DHT22;13825;53.496;10.020;2023-02-13T06:36:04;5.90;99.90
26051;DHT22;13825;53.496;10.020;2023-02-13T06:38:33;5.90;99.90
26051;DHT22;13825;53.496;10.020;2023-02-13T06:41:00;5.80;99.90
26051;DHT22;13825;53.496;10.020;2023-02-13T06:43:33;5.90;99.90
26051;DHT22;13825;53.496;10.020;2023-02-13T06:46:04;5.90;99.90
26051;DHT22;13825;53.496;10.020;2023-02-13T06:48:32;5.90;99.90
26051;DHT22;13825;53.496;10.020;2023-02-13T06:51:13;5.90;99.90
26051;DHT22;13825;53.496;10.020;2023-02-13T06:53:41;5.90;99.90
26051;DHT22;13825;53.496;10.020;2023-02-13T06:56:08;5.90;99.90
26051;DHT22;13825;53.496;10.020;2023-02-13T06:58:35;6.00;99.90
26051;DHT22;13825;53.496;10.020;2023-02-13T07:01:04;5.90;99.90
26051;DHT22;13825;53.496;10.020;2023-02-13T07:03:32;5.90;99.90
26051;DHT22;13825;53.496;10.020;2023-02-13T07:05:59;6.00;99.90
26051;DHT22;13825;53.496;10.020;2023-02-13T07:08:26;6.00;99.90
26051;DHT22;13825;53.496;10.020;2023-02-13T07:10:58;6.00;99.90
26051;DHT22;13825;53.496;10.020;2023-02-13T07:13:25;6.00;99.90
26051;DHT22;13825;53.496;10.020;2023-02-13T07:15:52;6.00;99.90
26051;DHT22;13825;53.496;10.020;2023-02-13T07:18:19;6.10;99.90
26051;DHT22;13825;53.496;10.020;2023-02-13T07:20:46;6.10;99.90
26051;DHT22;13825;53.496;10.020;2023-02-13T07:23:12;6.10;99.90
26051;DHT22;13825;53.496;10.020;2023-02-13T07:25:39;6.10;99.90
26051;DHT22;13825;53.496;10.020;2023-02-13T07:28:09;6.10;99.90
26051;DHT22;13825;53.496;10.020;2023-02-13T07:30:45;6.10;99.90
26051;DHT22;13825;53.496;10.020;2023-02-13T07:33:12;6.00;99.90
26051;DHT22;13825;53.496;10.020;2023-02-13T07:35:45;6.00;99.90
26051;DHT22;13825;53.496;10.020;2023-02-13T07:38:15;6.10;99.90
26051;DHT22;13825;53.496;10.020;2023-02-13T07:40:44;6.10;99.90
26051;DHT22;13825;53.496;10.020;2023-02-13T07:43:13;6.10;99.90
26051;DHT22;13825;53.496;10.020;2023-02-13T07:45:47;6.10;99.90
26051;DHT22;13825;53.496;10.020;2023-02-13T07:48:14;6.10;99.90
26051;DHT22;13825;53.496;10.020;2023-02-13T07:50:58;6.10;99.90
26051;DHT22;13825;53.496;10.020;2023-02-13T07:53:26;6.20;99.90
26051;DHT22;13825;53.496;10.020;2023-02-13T07:55:53;6.20;99.90
26051;DHT22;13825;53.496;10.020;2023-02-13T07:58:22;6.20;99.90
26051;DHT22;13825;53.496;10.020;2023-02-13T08:00:49;6.10;99.90
26051;DHT22;13825;53.496;10.020;2023-02-13T08:03:23;6.20;99.90
26051;DHT22;13825;53.496;10.020;2023-02-13T08:05:52;6.20;99.90
26051;DHT22;13825;53.496;10.020;2023-02-13T08:08:20;6.20;99.90
26051;DHT22;13825;53.496;10.020;2023-02-13T08:10:46;6.20;99.90
26051;DHT22;13825;53.496;10.020;2023-02-13T08:13:32;6.20;99.90
26051;DHT22;13825;53.496;10.020;2023-02-13T08:15:59;6.20;99.90
26051;DHT22;13825;53.496;10.020;2023-02-13T08:18:26;6.20;99.90
26051;DHT22;13825;53.496;10.020;2023-02-13T08:20:53;6.20;99.90
26051;DHT22;13825;53.496;10.020;2023-02-13T08:23:19;6.20;99.90
26051;DHT22;13825;53.496;10.020;2023-02-13T08:25:46;6.20;99.90
26051;DHT22;13825;53.496;10.020;2023-02-13T08:28:14;6.30;99.90
26051;DHT22;13825;53.496;10.020;2023-02-13T08:30:42;6.30;99.90
26051;DHT22;13825;53.496;10.020;2023-02-13T08:33:09;6.30;99.90
26051;DHT22;13825;53.496;10.020;2023-02-13T08:35:36;6.30;99.90
26051;DHT22;13825;53.496;10.020;2023-02-13T08:38:03;6.30;99.90
26051;DHT22;13825;53.496;10.020;2023-02-13T08:40:30;6.30;99.90
26051;DHT22;13825;53.496;10.020;2023-02-13T08:43:01;6.40;99.90
26051;DHT22;13825;53.496;10.020;2023-02-13T08:45:28;6.40;99.90
26051;DHT22;13825;53.496;10.020;2023-02-13T08:47:56;6.50;99.90
26051;DHT22;13825;53.496;10.020;2023-02-13T08:50:24;6.50;99.90
26051;DHT22;13825;53.496;10.020;2023-02-13T08:52:51;6.50;99.90
26051;DHT22;13825;53.496;10.020;2023-02-13T08:55:18;6.50;99.90
26051;DHT22;13825;53.496;10.020;2023-02-13T08:57:45;6.50;99.90
26051;DHT22;13825;53.496;10.020;2023-02-13T09:00:13;6.60;99.90
26051;DHT22;13825;53.496;10.020;2023-02-13T09:02:40;6.50;99.90
26051;DHT22;13825;53.496;10.020;2023-02-13T09:05:08;6.60;99.90
26051;DHT22;13825;53.496;10.020;2023-02-13T09:07:35;6.60;99.90
26051;DHT22;13825;53.496;10.020;2023-02-13T09:10:02;6.60;99.90
26051;DHT22;13825;53.496;10.020;2023-02-13T09:12:29;6.60;99.90
26051;DHT22;13825;53.496;10.020;2023-02-13T09:14:56;6.60;99.90
26051;DHT22;13825;53.496;10.020;2023-02-13T09:17:23;6.60;99.90
26051;DHT22;13825;53.496;10.020;2023-02-13T09:19:50;6.60;99.90
26051;DHT22;13825;53.496;10.020;2023-02-13T09:22:18;6.70;99.90
26051;DHT22;13825;53.496;10.020;2023-02-13T09:24:45;6.60;99.90
26051;DHT22;13825;53.496;10.020;2023-02-13T09:27:12;6.70;99.90
26051;DHT22;13825;53.496;10.020;2023-02-13T09:29:39;6.70;99.90
26051;DHT22;13825;53.496;10.020;2023-02-13T09:32:06;6.70;99.90
26051;DHT22;13825;53.496;10.020;2023-02-13T09:34:33;6.70;99.90
26051;DHT22;13825;53.496;10.020;2023-02-13T09:37:00;6.70;99.90
26051;DHT22;13825;53.496;10.020;2023-02-13T09:39:28;6.80;99.90
26051;DHT22;13825;53.496;10.020;2023-02-13T09:41:55;6.80;99.90
26051;DHT22;13825;53.496;10.020;2023-02-13T09:44:34;6.80;99.90
26051;DHT22;13825;53.496;10.020;2023-02-13T09:47:06;6.80;99.90
26051;DHT22;13825;53.496;10.020;2023-02-13T09:49:40;7.00;99.90
26051;DHT22;13825;53.496;10.020;2023-02-13T09:52:08;6.90;99.90
26051;DHT22;13825;53.496;10.020;2023-02-13T09:54:37;7.00;99.90
26051;DHT22;13825;53.496;10.020;2023-02-13T09:57:16;7.00;99.90
26051;DHT22;13825;53.496;10.020;2023-02-13T09:59:53;6.90;99.90
26051;DHT22;13825;53.496;10.020;2023-02-13T10:02:44;7.00;99.90
26051;DHT22;13825;53.496;10.020;2023-02-13T10:05:27;7.00;99.90
26051;DHT22;13825;53.496;10.020;2023-02-13T10:08:04;7.00;99.90
26051;DHT22;13825;53.496;10.020;2023-02-13T10:10:43;7.00;99.90
26051;DHT22;13825;53.496;10.020;2023-02-13T10:13:25;7.00;99.90
26051;DHT22;13825;53.496;10.020;2023-02-13T10:16:01;7.10;99.90
26051;DHT22;13825;53.496;10.020;2023-02-13T10:18:37;7.10;99.90
26051;DHT22;13825;53.496;10.020;2023-02-13T10:21:07;7.10;99.90
26051;DHT22;13825;53.496;10.020;2023-02-13T10:23:39;7.10;99.90
26051;DHT22;13825;53.496;10.020;2023-02-13T10:26:17;7.10;99.90
26051;DHT22;13825;53.496;10.020;2023-02-13T10:28:49;7.00;99.90
26051;DHT22;13825;53.496;10.020;2023-02-13T10:31:46;7.10;99.90
26051;DHT22;13825;53.496;10.020;2023-02-13T10:34:16;7.10;99.90
26051;DHT22;13825;53.496;10.020;2023-02-13T10:36:44;7.20;99.90
26051;DHT22;13825;53.496;10.020;2023-02-13T10:39:21;7.20;99.90
26051;DHT22;13825;53.496;10.020;2023-02-13T10:41:52;7.20;99.90
26051;DHT22;13825;53.496;10.020;2023-02-13T10:44:45;7.20;99.90
26051;DHT22;13825;53.496;10.020;2023-02-13T10:47:23;7.20;99.90
26051;DHT22;13825;53.496;10.020;2023-02-13T10:50:02;7.20;99.90
26051;DHT22;13825;53.496;10.020;2023-02-13T10:52:39;7.30;99.90
26051;DHT22;13825;53.496;10.020;2023-02-13T10:55:19;7.30;99.90
26051;DHT22;13825;53.496;10.020;2023-02-13T10:58:02;7.40;99.90
26051;DHT22;13825;53.496;10.020;2023-02-13T11:00:34;7.30;99.90
26051;DHT22;13825;53.496;10.020;2023-02-13T11:03:03;7.40;99.90
26051;DHT22;13825;53.496;10.020;2023-02-13T11:05:32;7.30;99.90
26051;DHT22;13825;53.496;10.020;2023-02-13T11:07:59;7.40;99.90
26051;DHT22;13825;53.496;10.020;2023-02-13T11:10:27;7.40;99.90
26051;DHT22;13825;53.496;10.020;2023-02-13T11:12:56;7.40;99.90
26051;DHT22;13825;53.496;10.020;2023-02-13T11:15:25;7.40;99.90
26051;DHT22;13825;53.496;10.020;2023-02-13T11:17:54;7.40;99.90
26051;DHT22;13825;53.496;10.020;2023-02-13T11:20:29;7.50;99.90
26051;DHT22;13825;53.496;10.020;2023-02-13T11:23:17;7.50;99.90
26051;DHT22;13825;53.496;10.020;2023-02-13T11:25:55;7.50;99.90
26051;DHT22;13825;53.496;10.020;2023-02-13T11:28:24;7.60;99.90
26051;DHT22;13825;53.496;10.020;2023-02-13T11:30:53;7.50;99.90
26051;DHT22;13825;53.496;10.020;2023-02-13T11:33:34;7.60;99.90
26051;DHT22;13825;53.496;10.020;2023-02-13T11:36:05;7.60;99.90
26051;DHT22;13825;53.496;10.020;2023-02-13T11:38:33;7.60;99.90
26051;DHT22;13825;53.496;10.020;2023-02-13T11:41:06;7.50;99.90
26051;DHT22;13825;53.496;10.020;2023-02-13T11:43:36;7.50;99.90
26051;DHT22;13825;53.496;10.020;2023-02-13T11:46:06;7.50;99.90
26051;DHT22;13825;53.496;10.020;2023-02-13T11:48:34;7.50;99.90
26051;DHT22;13825;53.496;10.020;2023-02-13T11:51:01;7.50;99.90
26051;DHT22;13825;53.496;10.020;2023-02-13T11:53:29;7.50;99.90
26051;DHT22;13825;53.496;10.020;2023-02-13T11:56:06;7.50;99.90
26051;DHT22;13825;53.496;10.020;2023-02-13T11:58:35;7.60;99.90
26051;DHT22;13825;53.496;10.020;2023-02-13T12:04:00;7.60;99.90
26051;DHT22;13825;53.496;10.020;2023-02-13T12:06:28;7.70;99.90
26051;DHT22;13825;53.496;10.020;2023-02-13T12:08:55;7.70;99.90
26051;DHT22;13825;53.496;10.020;2023-02-13T12:11:32;7.70;99.90
26051;DHT22;13825;53.496;10.020;2023-02-13T12:14:01;7.70;99.90
26051;DHT22;13825;53.496;10.020;2023-02-13T12:16:31;7.80;99.90
26051;DHT22;13825;53.496;10.020;2023-02-13T12:19:02;7.80;99.90
26051;DHT22;13825;53.496;10.020;2023-02-13T12:21:43;7.70;99.90
26051;DHT22;13825;53.496;10.020;2023-02-13T12:24:22;7.70;99.90
26051;DHT22;13825;53.496;10.020;2023-02-13T12:26:56;7.70;99.90
26051;DHT22;13825;53.496;10.020;2023-02-13T12:29:58;7.70;99.90
26051;DHT22;13825;53.496;10.020;2023-02-13T12:32:39;7.70;99.90
26051;DHT22;13825;53.496;10.020;2023-02-13T12:35:35;7.80;99.90
26051;DHT22;13825;53.496;10.020;2023-02-13T12:38:15;7.90;99.90
26051;DHT22;13825;53.496;10.020;2023-02-13T12:41:14;7.90;99.90
26051;DHT22;13825;53.496;10.020;2023-02-13T12:44:06;7.80;99.90
26051;DHT22;13825;53.496;10.020;2023-02-13T12:46:42;7.80;99.90
26051;DHT22;13825;53.496;10.020;2023-02-13T12:49:21;7.80;99.90
26051;DHT22;13825;53.496;10.020;2023-02-13T12:52:01;7.70;99.90
26051;DHT22;13825;53.496;10.020;2023-02-13T12:54:39;7.80;99.90
26051;DHT22;13825;53.496;10.020;2023-02-13T12:57:20;7.80;99.90
26051;DHT22;13825;53.496;10.020;2023-02-13T13:00:03;7.70;99.90
26051;DHT22;13825;53.496;10.020;2023-02-13T13:03:07;7.70;99.90
26051;DHT22;13825;53.496;10.020;2023-02-13T13:05:53;7.70;99.90
26051;DHT22;13825;53.496;10.020;2023-02-13T13:08:33;7.70;99.90
26051;DHT22;13825;53.496;10.020;2023-02-13T13:11:16;7.70;99.90
26051;DHT22;13825;53.496;10.020;2023-02-13T13:13:56;7.70;99.90
26051;DHT22;13825;53.496;10.020;2023-02-13T13:16:33;7.70;99.90
26051;DHT22;13825;53.496;10.020;2023-02-13T13:19:21;7.70;99.90
26051;DHT22;13825;53.496;10.020;2023-02-13T13:21:56;7.60;99.90
26051;DHT22;13825;53.496;10.020;2023-02-13T13:24:36;7.50;99.90
26051;DHT22;13825;53.496;10.020;2023-02-13T13:27:15;7.60;99.90
26051;DHT22;13825;53.496;10.020;2023-02-13T13:29:45;7.60;99.90
26051;DHT22;13825;53.496;10.020;2023-02-13T13:32:16;7.60;99.90
26051;DHT22;13825;53.496;10.020;2023-02-13T13:34:48;7.60;99.90
26051;DHT22;13825;53.496;10.020;2023-02-13T13:37:22;7.70;99.90
26051;DHT22;13825;53.496;10.020;2023-02-13T13:39:56;7.60;99.90
26051;DHT22;13825;53.496;10.020;2023-02-13T13:42:34;7.50;99.90
26051;DHT22;13825;53.496;10.020;2023-02-13T13:45:17;7.60;99.90
26051;DHT22;13825;53.496;10.020;2023-02-13T13:50:40;7.60;99.90
26051;DHT22;13825;53.496;10.020;2023-02-13T13:53:11;7.60;99.90
26051;DHT22;13825;53.496;10.020;2023-02-13T13:56:06;7.60;99.90
26051;DHT22;13825;53.496;10.020;2023-02-13T13:58:44;7.50;99.90
26051;DHT22;13825;53.496;10.020;2023-02-13T14:01:27;7.60;99.90
26051;DHT22;13825;53.496;10.020;2023-02-13T14:03:58;7.60;99.90
26051;DHT22;13825;53.496;10.020;2023-02-13T14:09:42;7.70;99.90
26051;DHT22;13825;53.496;10.020;2023-02-13T14:12:35;7.70;99.90
26051;DHT22;13825;53.496;10.020;2023-02-13T14:15:47;7.70;99.90
26051;DHT22;13825;53.496;10.020;2023-02-13T14:17:59;7.70;99.90
26051;DHT22;13825;53.496;10.020;2023-02-13T14:20:40;7.60;99.90
26051;DHT22;13825;53.496;10.020;2023-02-13T14:23:24;7.60;99.90
26051;DHT22;13825;53.496;10.020;2023-02-13T14:31:57;7.60;99.90
26051;DHT22;13825;53.496;10.020;2023-02-13T14:34:30;7.50;99.90
26051;DHT22;13825;53.496;10.020;2023-02-13T14:37:11;7.50;99.90
26051;DHT22;13825;53.496;10.020;2023-02-13T14:42:59;7.50;99.90
26051;DHT22;13825;53.496;10.020;2023-02-13T14:45:29;7.50;99.90
26051;DHT22;13825;53.496;10.020;2023-02-13T14:48:04;7.60;99.90
26051;DHT22;13825;53.496;10.020;2023-02-13T14:50:40;7.60;99.90
26051;DHT22;13825;53.496;10.020;2023-02-13T14:53:19;7.60;99.90
26051;DHT22;13825;53.496;10.020;2023-02-13T14:55:57;7.40;99.90
26051;DHT22;13825;53.496;10.020;2023-02-13T14:58:32;7.40;99.90
26051;DHT22;13825;53.496;10.020;2023-02-13T15:01:20;7.30;99.90
26051;DHT22;13825;53.496;10.020;2023-02-13T15:04:19;7.20;99.90
26051;DHT22;13825;53.496;10.020;2023-02-13T15:06:54;7.20;99.90
26051;DHT22;13825;53.496;10.020;2023-02-13T15:09:29;7.10;99.90
26051;DHT22;13825;53.496;10.020;2023-02-13T15:12:23;7.10;99.90
26051;DHT22;13825;53.496;10.020;2023-02-13T15:14:58;7.10;99.90
26051;DHT22;13825;53.496;10.020;2023-02-13T15:17:33;7.10;99.90
26051;DHT22;13825;53.496;10.020;2023-02-13T15:20:22;7.10;99.90
26051;DHT22;13825;53.496;10.020;2023-02-13T15:23:00;7.10;99.90
26051;DHT22;13825;53.496;10.020;2023-02-13T15:25:44;7.10;99.90
26051;DHT22;13825;53.496;10.020;2023-02-13T15:28:24;7.10;99.90
26051;DHT22;13825;53.496;10.020;2023-02-13T15:31:04;7.10;99.90
26051;DHT22;13825;53.496;10.020;2023-02-13T15:33:58;7.00;99.90
26051;DHT22;13825;53.496;10.020;2023-02-13T15:36:39;7.00;99.90
26051;DHT22;13825;53.496;10.020;2023-02-13T15:39:25;7.00;99.90
26051;DHT22;13825;53.496;10.020;2023-02-13T15:42:05;7.00;99.90
26051;DHT22;13825;53.496;10.020;2023-02-13T15:45:19;7.00;99.90
26051;DHT22;13825;53.496;10.020;2023-02-13T15:47:49;6.90;99.90
26051;DHT22;13825;53.496;10.020;2023-02-13T15:50:41;6.90;99.90
26051;DHT22;13825;53.496;10.020;2023-02-13T15:53:14;6.90;99.90
26051;DHT22;13825;53.496;10.020;2023-02-13T15:56:03;6.90;99.90
26051;DHT22;13825;53.496;10.020;2023-02-13T15:59:13;6.90;99.90
26051;DHT22;13825;53.496;10.020;2023-02-13T16:01:56;6.90;99.90
26051;DHT22;13825;53.496;10.020;2023-02-13T16:04:31;6.90;99.90
26051;DHT22;13825;53.496;10.020;2023-02-13T16:07:01;6.80;99.90
26051;DHT22;13825;53.496;10.020;2023-02-13T16:09:31;6.80;99.90
26051;DHT22;13825;53.496;10.020;2023-02-13T16:12:20;6.80;99.90
26051;DHT22;13825;53.496;10.020;2023-02-13T16:14:52;6.80;99.90
26051;DHT22;13825;53.496;10.020;2023-02-13T16:17:31;6.70;99.90
26051;DHT22;13825;53.496;10.020;2023-02-13T16:20:17;6.70;99.90
26051;DHT22;13825;53.496;10.020;2023-02-13T16:23:02;6.70;99.90
26051;DHT22;13825;53.496;10.020;2023-02-13T16:25:32;6.70;99.90
26051;DHT22;13825;53.496;10.020;2023-02-13T16:28:02;6.70;99.90
26051;DHT22;13825;53.496;10.020;2023-02-13T16:30:32;6.70;99.90
26051;DHT22;13825;53.496;10.020;2023-02-13T16:33:16;6.70;99.90
26051;DHT22;13825;53.496;10.020;2023-02-13T16:35:46;6.70;99.90